sensor_id;sensor_type;location;lat;lon;timestamp;P1;durP1;ratioP1;P2;durP2;ratioP2
17207;SDS011;8720;48.488;9.202;2023-06-26T00:01:43;6.17;;;5.63;;
17207;SDS011;8720;48.488;9.202;2023-06-26T00:04:10;8.50;;;5.93;;
17207;SDS011;8720;48.488;9.202;2023-06-26T00:06:39;6.77;;;5.47;;
17207;SDS011;8720;48.488;9.202;2023-06-26T00:09:07;8.33;;;6.00;;
17207;SDS011;8720;48.488;9.202;2023-06-26T00:11:34;6.20;;;5.60;;
17207;SDS011;8720;48.488;9.202;2023-06-26T00:14:02;6.63;;;5.97;;
17207;SDS011;8720;48.488;9.202;2023-06-26T00:16:30;8.47;;;6.50;;
17207;SDS011;8720;48.488;9.202;2023-06-26T00:18:57;6.30;;;5.70;;
17207;SDS011;8720;48.488;9.202;2023-06-26T00:21:25;6.07;;;5.47;;
17207;SDS011;8720;48.488;9.202;2023-06-26T00:23:52;7.10;;;5.93;;
17207;SDS011;8720;48.488;9.202;2023-06-26T00:26:19;6.33;;;5.73;;
17207;SDS011;8720;48.488;9.202;2023-06-26T00:28:49;6.57;;;5.97;;
17207;SDS011;8720;48.488;9.202;2023-06-26T00:31:16;6.70;;;6.00;;
17207;SDS011;8720;48.488;9.202;2023-06-26T00:33:45;6.37;;;5.50;;
17207;SDS011;8720;48.488;9.202;2023-06-26T00:36:12;6.13;;;5.53;;
17207;SDS011;8720;48.488;9.202;2023-06-26T00:38:40;6.97;;;6.10;;
17207;SDS011;8720;48.488;9.202;2023-06-26T00:41:07;6.17;;;5.57;;
17207;SDS011;8720;48.488;9.202;2023-06-26T00:43:38;7.00;;;6.30;;
17207;SDS011;8720;48.488;9.202;2023-06-26T00:46:09;7.07;;;5.67;;
17207;SDS011;8720;48.488;9.202;2023-06-26T00:48:41;6.33;;;5.73;;
17207;SDS011;8720;48.488;9.202;2023-06-26T00:51:12;6.97;;;6.27;;
17207;SDS011;8720;48.488;9.202;2023-06-26T00:53:39;6.63;;;6.03;;
17207;SDS011;8720;48.488;9.202;2023-06-26T00:56:09;6.77;;;6.13;;
17207;SDS011;8720;48.488;9.202;2023-06-26T00:58:38;6.03;;;5.43;;
17207;SDS011;8720;48.488;9.202;2023-06-26T01:01:05;6.97;;;6.27;;
17207;SDS011;8720;48.488;9.202;2023-06-26T01:03:33;6.57;;;5.97;;
17207;SDS011;8720;48.488;9.202;2023-06-26T01:06:07;6.70;;;6.10;;
17207;SDS011;8720;48.488;9.202;2023-06-26T01:08:41;7.90;;;6.33;;
17207;SDS011;8720;48.488;9.202;2023-06-26T01:11:09;7.30;;;6.20;;
17207;SDS011;8720;48.488;9.202;2023-06-26T01:13:38;7.50;;;6.37;;
17207;SDS011;8720;48.488;9.202;2023-06-26T01:16:07;6.90;;;6.20;;
17207;SDS011;8720;48.488;9.202;2023-06-26T01:18:37;7.00;;;6.30;;
17207;SDS011;8720;48.488;9.202;2023-06-26T01:21:07;7.03;;;6.00;;
17207;SDS011;8720;48.488;9.202;2023-06-26T01:23:39;6.37;;;5.77;;
17207;SDS011;8720;48.488;9.202;2023-06-26T01:26:32;8.30;;;7.10;;
17207;SDS011;8720;48.488;9.202;2023-06-26T01:29:02;7.03;;;6.30;;
17207;SDS011;8720;48.488;9.202;2023-06-26T01:31:34;8.37;;;7.13;;
17207;SDS011;8720;48.488;9.202;2023-06-26T01:34:03;7.77;;;6.97;;
17207;SDS011;8720;48.488;9.202;2023-06-26T01:36:30;7.23;;;6.50;;
17207;SDS011;8720;48.488;9.202;2023-06-26T01:38:58;7.60;;;6.83;;
17207;SDS011;8720;48.488;9.202;2023-06-26T01:41:25;10.00;;;6.10;;
17207;SDS011;8720;48.488;9.202;2023-06-26T01:44:01;7.33;;;6.63;;
17207;SDS011;8720;48.488;9.202;2023-06-26T01:46:43;6.57;;;5.97;;
17207;SDS011;8720;48.488;9.202;2023-06-26T01:49:25;8.23;;;7.53;;
17207;SDS011;8720;48.488;9.202;2023-06-26T01:52:11;8.20;;;6.57;;
17207;SDS011;8720;48.488;9.202;2023-06-26T01:54:55;6.93;;;6.23;;
17207;SDS011;8720;48.488;9.202;2023-06-26T01:57:29;7.93;;;6.77;;
17207;SDS011;8720;48.488;9.202;2023-06-26T01:59:59;7.00;;;6.30;;
17207;SDS011;8720;48.488;9.202;2023-06-26T02:05:28;7.60;;;6.73;;
17207;SDS011;8720;48.488;9.202;2023-06-26T02:07:57;7.43;;;6.37;;
17207;SDS011;8720;48.488;9.202;2023-06-26T02:10:29;7.63;;;6.73;;
17207;SDS011;8720;48.488;9.202;2023-06-26T02:12:56;7.23;;;6.60;;
17207;SDS011;8720;48.488;9.202;2023-06-26T02:15:25;7.43;;;6.63;;
17207;SDS011;8720;48.488;9.202;2023-06-26T02:17:53;8.03;;;7.03;;
17207;SDS011;8720;48.488;9.202;2023-06-26T02:20:20;7.33;;;6.50;;
17207;SDS011;8720;48.488;9.202;2023-06-26T02:22:47;6.70;;;5.93;;
17207;SDS011;8720;48.488;9.202;2023-06-26T02:25:14;8.10;;;7.23;;
17207;SDS011;8720;48.488;9.202;2023-06-26T02:27:42;7.13;;;6.33;;
17207;SDS011;8720;48.488;9.202;2023-06-26T02:30:09;8.10;;;6.80;;
17207;SDS011;8720;48.488;9.202;2023-06-26T02:32:38;7.50;;;6.80;;
17207;SDS011;8720;48.488;9.202;2023-06-26T02:35:06;7.73;;;6.20;;
17207;SDS011;8720;48.488;9.202;2023-06-26T02:37:34;7.00;;;6.10;;
17207;SDS011;8720;48.488;9.202;2023-06-26T02:40:02;11.00;;;7.60;;
17207;SDS011;8720;48.488;9.202;2023-06-26T02:42:32;6.97;;;6.27;;
17207;SDS011;8720;48.488;9.202;2023-06-26T02:45:01;7.17;;;6.47;;
17207;SDS011;8720;48.488;9.202;2023-06-26T02:47:30;6.33;;;5.73;;
17207;SDS011;8720;48.488;9.202;2023-06-26T02:49:59;7.07;;;6.40;;
17207;SDS011;8720;48.488;9.202;2023-06-26T02:52:32;6.73;;;6.00;;
17207;SDS011;8720;48.488;9.202;2023-06-26T02:55:00;7.17;;;6.47;;
17207;SDS011;8720;48.488;9.202;2023-06-26T02:57:28;7.40;;;6.70;;
17207;SDS011;8720;48.488;9.202;2023-06-26T02:59:56;7.70;;;7.00;;
17207;SDS011;8720;48.488;9.202;2023-06-26T03:02:24;7.00;;;6.30;;
17207;SDS011;8720;48.488;9.202;2023-06-26T03:04:52;9.87;;;7.90;;
17207;SDS011;8720;48.488;9.202;2023-06-26T03:07:20;7.57;;;6.87;;
17207;SDS011;8720;48.488;9.202;2023-06-26T03:09:48;7.37;;;6.67;;
17207;SDS011;8720;48.488;9.202;2023-06-26T03:12:15;7.10;;;6.40;;
17207;SDS011;8720;48.488;9.202;2023-06-26T03:14:42;8.57;;;7.60;;
17207;SDS011;8720;48.488;9.202;2023-06-26T03:17:10;10.80;;;7.13;;
17207;SDS011;8720;48.488;9.202;2023-06-26T03:19:40;8.30;;;7.50;;
17207;SDS011;8720;48.488;9.202;2023-06-26T03:22:18;7.70;;;6.97;;
17207;SDS011;8720;48.488;9.202;2023-06-26T03:24:47;7.87;;;6.87;;
17207;SDS011;8720;48.488;9.202;2023-06-26T03:27:15;8.00;;;7.20;;
17207;SDS011;8720;48.488;9.202;2023-06-26T03:29:43;8.00;;;7.17;;
17207;SDS011;8720;48.488;9.202;2023-06-26T03:32:11;7.83;;;7.03;;
17207;SDS011;8720;48.488;9.202;2023-06-26T03:34:38;8.53;;;6.73;;
17207;SDS011;8720;48.488;9.202;2023-06-26T03:37:06;7.77;;;7.00;;
17207;SDS011;8720;48.488;9.202;2023-06-26T03:39:35;7.87;;;7.17;;
17207;SDS011;8720;48.488;9.202;2023-06-26T03:42:02;8.57;;;7.63;;
17207;SDS011;8720;48.488;9.202;2023-06-26T03:44:31;8.10;;;7.30;;
17207;SDS011;8720;48.488;9.202;2023-06-26T03:46:58;8.20;;;7.40;;
17207;SDS011;8720;48.488;9.202;2023-06-26T03:49:26;8.00;;;6.73;;
17207;SDS011;8720;48.488;9.202;2023-06-26T03:51:55;7.53;;;6.73;;
17207;SDS011;8720;48.488;9.202;2023-06-26T03:54:22;8.67;;;7.70;;
17207;SDS011;8720;48.488;9.202;2023-06-26T03:56:51;8.43;;;7.57;;
17207;SDS011;8720;48.488;9.202;2023-06-26T03:59:20;8.30;;;6.83;;
17207;SDS011;8720;48.488;9.202;2023-06-26T04:01:49;9.70;;;7.83;;
17207;SDS011;8720;48.488;9.202;2023-06-26T04:04:16;9.10;;;7.60;;
17207;SDS011;8720;48.488;9.202;2023-06-26T04:06:43;7.70;;;7.00;;
17207;SDS011;8720;48.488;9.202;2023-06-26T04:09:11;6.97;;;6.33;;
17207;SDS011;8720;48.488;9.202;2023-06-26T04:11:38;7.53;;;6.67;;
17207;SDS011;8720;48.488;9.202;2023-06-26T04:14:07;8.13;;;7.27;;
17207;SDS011;8720;48.488;9.202;2023-06-26T04:16:34;7.53;;;6.83;;
17207;SDS011;8720;48.488;9.202;2023-06-26T04:19:01;6.90;;;6.20;;
17207;SDS011;8720;48.488;9.202;2023-06-26T04:21:30;8.87;;;7.97;;
17207;SDS011;8720;48.488;9.202;2023-06-26T04:23:57;7.27;;;6.53;;
17207;SDS011;8720;48.488;9.202;2023-06-26T04:26:24;8.93;;;7.83;;
17207;SDS011;8720;48.488;9.202;2023-06-26T04:28:53;7.80;;;6.80;;
17207;SDS011;8720;48.488;9.202;2023-06-26T04:31:21;9.67;;;8.67;;
17207;SDS011;8720;48.488;9.202;2023-06-26T04:33:49;8.70;;;7.77;;
17207;SDS011;8720;48.488;9.202;2023-06-26T04:36:16;9.57;;;8.57;;
17207;SDS011;8720;48.488;9.202;2023-06-26T04:38:44;12.73;;;9.93;;
17207;SDS011;8720;48.488;9.202;2023-06-26T04:41:13;14.73;;;13.33;;
17207;SDS011;8720;48.488;9.202;2023-06-26T04:43:40;10.50;;;9.20;;
17207;SDS011;8720;48.488;9.202;2023-06-26T04:46:07;9.43;;;8.37;;
17207;SDS011;8720;48.488;9.202;2023-06-26T04:48:36;9.33;;;8.03;;
17207;SDS011;8720;48.488;9.202;2023-06-26T04:51:05;8.53;;;7.53;;
17207;SDS011;8720;48.488;9.202;2023-06-26T04:53:32;8.00;;;7.20;;
17207;SDS011;8720;48.488;9.202;2023-06-26T04:55:59;7.73;;;6.93;;
17207;SDS011;8720;48.488;9.202;2023-06-26T04:58:27;7.97;;;7.27;;
17207;SDS011;8720;48.488;9.202;2023-06-26T05:00:54;7.20;;;6.57;;
17207;SDS011;8720;48.488;9.202;2023-06-26T05:03:21;7.17;;;6.27;;
17207;SDS011;8720;48.488;9.202;2023-06-26T05:05:50;7.30;;;6.60;;
17207;SDS011;8720;48.488;9.202;2023-06-26T05:08:20;7.03;;;6.40;;
17207;SDS011;8720;48.488;9.202;2023-06-26T05:10:49;7.20;;;6.60;;
17207;SDS011;8720;48.488;9.202;2023-06-26T05:13:18;7.47;;;6.73;;
17207;SDS011;8720;48.488;9.202;2023-06-26T05:15:45;7.67;;;6.97;;
17207;SDS011;8720;48.488;9.202;2023-06-26T05:18:13;7.93;;;7.23;;
17207;SDS011;8720;48.488;9.202;2023-06-26T05:20:41;8.40;;;6.90;;
17207;SDS011;8720;48.488;9.202;2023-06-26T05:23:10;8.07;;;7.27;;
17207;SDS011;8720;48.488;9.202;2023-06-26T05:25:38;7.30;;;6.60;;
17207;SDS011;8720;48.488;9.202;2023-06-26T05:28:07;7.57;;;6.97;;
17207;SDS011;8720;48.488;9.202;2023-06-26T05:30:36;10.00;;;7.53;;
17207;SDS011;8720;48.488;9.202;2023-06-26T05:33:04;8.57;;;7.77;;
17207;SDS011;8720;48.488;9.202;2023-06-26T05:35:33;7.67;;;6.97;;
17207;SDS011;8720;48.488;9.202;2023-06-26T05:38:03;8.93;;;7.83;;
17207;SDS011;8720;48.488;9.202;2023-06-26T05:40:33;8.87;;;7.97;;
17207;SDS011;8720;48.488;9.202;2023-06-26T05:43:01;9.30;;;7.30;;
17207;SDS011;8720;48.488;9.202;2023-06-26T05:45:29;8.07;;;7.30;;
17207;SDS011;8720;48.488;9.202;2023-06-26T05:47:56;7.83;;;7.23;;
17207;SDS011;8720;48.488;9.202;2023-06-26T05:50:24;8.23;;;7.43;;
17207;SDS011;8720;48.488;9.202;2023-06-26T05:52:53;7.37;;;6.67;;
17207;SDS011;8720;48.488;9.202;2023-06-26T05:55:21;7.40;;;6.70;;
17207;SDS011;8720;48.488;9.202;2023-06-26T05:57:51;7.57;;;6.87;;
17207;SDS011;8720;48.488;9.202;2023-06-26T06:00:21;8.03;;;6.47;;
17207;SDS011;8720;48.488;9.202;2023-06-26T06:02:50;6.97;;;6.37;;
17207;SDS011;8720;48.488;9.202;2023-06-26T06:05:19;6.93;;;6.20;;
17207;SDS011;8720;48.488;9.202;2023-06-26T06:07:48;7.50;;;6.80;;
17207;SDS011;8720;48.488;9.202;2023-06-26T06:10:15;7.07;;;6.37;;
17207;SDS011;8720;48.488;9.202;2023-06-26T06:12:43;7.00;;;6.30;;
17207;SDS011;8720;48.488;9.202;2023-06-26T06:15:12;8.30;;;6.37;;
17207;SDS011;8720;48.488;9.202;2023-06-26T06:17:39;7.07;;;6.37;;
17207;SDS011;8720;48.488;9.202;2023-06-26T06:20:06;6.70;;;6.10;;
17207;SDS011;8720;48.488;9.202;2023-06-26T06:22:35;6.80;;;6.20;;
17207;SDS011;8720;48.488;9.202;2023-06-26T06:25:02;6.93;;;6.33;;
17207;SDS011;8720;48.488;9.202;2023-06-26T06:27:30;6.60;;;6.10;;
17207;SDS011;8720;48.488;9.202;2023-06-26T06:29:57;7.03;;;6.43;;
17207;SDS011;8720;48.488;9.202;2023-06-26T06:32:26;7.00;;;6.40;;
17207;SDS011;8720;48.488;9.202;2023-06-26T06:34:53;6.50;;;6.00;;
17207;SDS011;8720;48.488;9.202;2023-06-26T06:37:21;6.33;;;5.83;;
17207;SDS011;8720;48.488;9.202;2023-06-26T06:39:48;6.70;;;6.03;;
17207;SDS011;8720;48.488;9.202;2023-06-26T06:42:15;6.10;;;5.60;;
17207;SDS011;8720;48.488;9.202;2023-06-26T06:44:43;6.90;;;6.30;;
17207;SDS011;8720;48.488;9.202;2023-06-26T06:47:10;6.80;;;6.20;;
17207;SDS011;8720;48.488;9.202;2023-06-26T06:49:39;7.15;;;5.65;;
17207;SDS011;8720;48.488;9.202;2023-06-26T06:52:06;6.22;;;5.63;;
17207;SDS011;8720;48.488;9.202;2023-06-26T06:54:44;7.32;;;6.72;;
17207;SDS011;8720;48.488;9.202;2023-06-26T06:57:19;7.10;;;6.40;;
17207;SDS011;8720;48.488;9.202;2023-06-26T06:59:46;6.88;;;6.28;;
17207;SDS011;8720;48.488;9.202;2023-06-26T07:02:14;6.10;;;5.65;;
17207;SDS011;8720;48.488;9.202;2023-06-26T07:04:44;7.38;;;6.78;;
17207;SDS011;8720;48.488;9.202;2023-06-26T07:07:12;6.13;;;5.63;;
17207;SDS011;8720;48.488;9.202;2023-06-26T07:09:40;5.97;;;5.47;;
17207;SDS011;8720;48.488;9.202;2023-06-26T07:12:07;5.80;;;5.30;;
17207;SDS011;8720;48.488;9.202;2023-06-26T07:14:35;5.85;;;5.32;;
17207;SDS011;8720;48.488;9.202;2023-06-26T07:17:03;5.70;;;5.20;;
17207;SDS011;8720;48.488;9.202;2023-06-26T07:19:30;5.72;;;5.22;;
17207;SDS011;8720;48.488;9.202;2023-06-26T07:21:59;6.28;;;5.78;;
17207;SDS011;8720;48.488;9.202;2023-06-26T07:24:27;4.80;;;4.40;;
17207;SDS011;8720;48.488;9.202;2023-06-26T07:26:54;5.30;;;4.90;;
17207;SDS011;8720;48.488;9.202;2023-06-26T07:29:21;6.93;;;5.38;;
17207;SDS011;8720;48.488;9.202;2023-06-26T07:31:49;5.50;;;5.00;;
17207;SDS011;8720;48.488;9.202;2023-06-26T07:34:16;5.15;;;4.65;;
17207;SDS011;8720;48.488;9.202;2023-06-26T07:36:43;5.20;;;4.80;;
17207;SDS011;8720;48.488;9.202;2023-06-26T07:39:12;5.60;;;5.18;;
17207;SDS011;8720;48.488;9.202;2023-06-26T07:41:39;8.07;;;4.35;;
17207;SDS011;8720;48.488;9.202;2023-06-26T07:44:07;5.60;;;5.15;;
17207;SDS011;8720;48.488;9.202;2023-06-26T07:46:34;5.85;;;5.13;;
17207;SDS011;8720;48.488;9.202;2023-06-26T07:49:01;5.13;;;4.72;;
17207;SDS011;8720;48.488;9.202;2023-06-26T07:51:29;5.10;;;4.70;;
17207;SDS011;8720;48.488;9.202;2023-06-26T07:53:56;5.65;;;5.05;;
17207;SDS011;8720;48.488;9.202;2023-06-26T07:56:25;4.88;;;4.47;;
17207;SDS011;8720;48.488;9.202;2023-06-26T07:58:52;5.15;;;4.75;;
17207;SDS011;8720;48.488;9.202;2023-06-26T08:01:19;5.30;;;4.88;;
17207;SDS011;8720;48.488;9.202;2023-06-26T08:03:47;5.07;;;4.68;;
17207;SDS011;8720;48.488;9.202;2023-06-26T08:06:14;4.75;;;4.35;;
17207;SDS011;8720;48.488;9.202;2023-06-26T08:08:41;4.47;;;4.18;;
17207;SDS011;8720;48.488;9.202;2023-06-26T08:11:09;5.00;;;4.60;;
17207;SDS011;8720;48.488;9.202;2023-06-26T08:13:37;5.30;;;4.90;;
17207;SDS011;8720;48.488;9.202;2023-06-26T08:16:05;4.65;;;4.32;;
17207;SDS011;8720;48.488;9.202;2023-06-26T08:18:32;4.78;;;4.38;;
17207;SDS011;8720;48.488;9.202;2023-06-26T08:20:59;5.18;;;4.57;;
17207;SDS011;8720;48.488;9.202;2023-06-26T08:23:26;4.18;;;3.88;;
17207;SDS011;8720;48.488;9.202;2023-06-26T08:25:54;5.00;;;4.60;;
17207;SDS011;8720;48.488;9.202;2023-06-26T08:28:23;5.03;;;4.63;;
17207;SDS011;8720;48.488;9.202;2023-06-26T08:30:52;4.43;;;4.13;;
17207;SDS011;8720;48.488;9.202;2023-06-26T08:33:19;4.97;;;4.57;;
17207;SDS011;8720;48.488;9.202;2023-06-26T08:35:47;5.28;;;4.78;;
17207;SDS011;8720;48.488;9.202;2023-06-26T08:38:14;4.73;;;4.23;;
17207;SDS011;8720;48.488;9.202;2023-06-26T08:40:41;4.90;;;4.50;;
17207;SDS011;8720;48.488;9.202;2023-06-26T08:43:09;5.60;;;4.10;;
17207;SDS011;8720;48.488;9.202;2023-06-26T08:45:37;5.30;;;4.90;;
17207;SDS011;8720;48.488;9.202;2023-06-26T08:48:07;5.13;;;4.63;;
17207;SDS011;8720;48.488;9.202;2023-06-26T08:50:35;4.47;;;4.18;;
17207;SDS011;8720;48.488;9.202;2023-06-26T08:53:08;4.90;;;4.50;;
17207;SDS011;8720;48.488;9.202;2023-06-26T08:55:47;4.67;;;4.30;;
17207;SDS011;8720;48.488;9.202;2023-06-26T08:58:19;4.15;;;3.85;;
17207;SDS011;8720;48.488;9.202;2023-06-26T09:00:46;5.00;;;4.60;;
17207;SDS011;8720;48.488;9.202;2023-06-26T09:03:16;5.33;;;4.93;;
17207;SDS011;8720;48.488;9.202;2023-06-26T09:05:44;5.30;;;4.90;;
17207;SDS011;8720;48.488;9.202;2023-06-26T09:08:11;5.03;;;4.53;;
17207;SDS011;8720;48.488;9.202;2023-06-26T09:10:39;5.20;;;4.80;;
17207;SDS011;8720;48.488;9.202;2023-06-26T09:13:07;5.57;;;4.60;;
17207;SDS011;8720;48.488;9.202;2023-06-26T09:15:37;4.97;;;4.57;;
17207;SDS011;8720;48.488;9.202;2023-06-26T09:18:09;4.70;;;4.30;;
17207;SDS011;8720;48.488;9.202;2023-06-26T09:20:38;5.10;;;4.70;;
17207;SDS011;8720;48.488;9.202;2023-06-26T09:23:05;4.93;;;4.53;;
17207;SDS011;8720;48.488;9.202;2023-06-26T09:25:33;4.43;;;4.13;;
17207;SDS011;8720;48.488;9.202;2023-06-26T09:28:04;5.30;;;4.60;;
17207;SDS011;8720;48.488;9.202;2023-06-26T09:30:32;5.00;;;4.60;;
17207;SDS011;8720;48.488;9.202;2023-06-26T09:33:12;5.23;;;4.80;;
17207;SDS011;8720;48.488;9.202;2023-06-26T09:35:43;5.07;;;4.67;;
17207;SDS011;8720;48.488;9.202;2023-06-26T09:38:12;5.77;;;5.27;;
17207;SDS011;8720;48.488;9.202;2023-06-26T09:40:40;5.20;;;4.80;;
17207;SDS011;8720;48.488;9.202;2023-06-26T09:43:09;5.03;;;4.53;;
17207;SDS011;8720;48.488;9.202;2023-06-26T09:45:40;4.90;;;4.40;;
17207;SDS011;8720;48.488;9.202;2023-06-26T09:48:07;5.77;;;5.27;;
17207;SDS011;8720;48.488;9.202;2023-06-26T09:50:34;5.07;;;4.63;;
17207;SDS011;8720;48.488;9.202;2023-06-26T09:53:08;5.30;;;4.80;;
17207;SDS011;8720;48.488;9.202;2023-06-26T09:55:36;5.90;;;5.40;;
17207;SDS011;8720;48.488;9.202;2023-06-26T09:58:04;5.10;;;4.70;;
17207;SDS011;8720;48.488;9.202;2023-06-26T10:00:34;5.73;;;5.23;;
17207;SDS011;8720;48.488;9.202;2023-06-26T10:03:02;5.60;;;5.00;;
17207;SDS011;8720;48.488;9.202;2023-06-26T10:05:29;5.30;;;4.80;;
17207;SDS011;8720;48.488;9.202;2023-06-26T10:07:57;5.60;;;5.10;;
17207;SDS011;8720;48.488;9.202;2023-06-26T10:10:28;5.50;;;5.10;;
17207;SDS011;8720;48.488;9.202;2023-06-26T10:13:00;5.70;;;5.30;;
17207;SDS011;8720;48.488;9.202;2023-06-26T10:15:34;5.23;;;4.87;;
17207;SDS011;8720;48.488;9.202;2023-06-26T10:18:03;7.07;;;4.80;;
17207;SDS011;8720;48.488;9.202;2023-06-26T10:20:32;6.10;;;5.60;;
17207;SDS011;8720;48.488;9.202;2023-06-26T10:23:00;7.57;;;5.27;;
17207;SDS011;8720;48.488;9.202;2023-06-26T10:25:34;5.00;;;4.40;;
17207;SDS011;8720;48.488;9.202;2023-06-26T10:28:03;6.07;;;5.47;;
17207;SDS011;8720;48.488;9.202;2023-06-26T10:30:33;8.43;;;5.10;;
17207;SDS011;8720;48.488;9.202;2023-06-26T10:33:04;5.73;;;5.27;;
17207;SDS011;8720;48.488;9.202;2023-06-26T10:35:32;5.53;;;5.03;;
17207;SDS011;8720;48.488;9.202;2023-06-26T10:38:07;5.57;;;5.17;;
17207;SDS011;8720;48.488;9.202;2023-06-26T10:40:42;5.60;;;5.20;;
17207;SDS011;8720;48.488;9.202;2023-06-26T10:43:11;5.37;;;4.97;;
17207;SDS011;8720;48.488;9.202;2023-06-26T10:45:44;5.80;;;5.30;;
17207;SDS011;8720;48.488;9.202;2023-06-26T10:48:17;6.00;;;5.50;;
17207;SDS011;8720;48.488;9.202;2023-06-26T10:50:47;5.20;;;4.73;;
17207;SDS011;8720;48.488;9.202;2023-06-26T10:53:15;5.50;;;5.00;;
17207;SDS011;8720;48.488;9.202;2023-06-26T10:55:55;5.90;;;5.10;;
17207;SDS011;8720;48.488;9.202;2023-06-26T10:58:31;4.97;;;4.57;;
17207;SDS011;8720;48.488;9.202;2023-06-26T11:03:48;4.97;;;4.57;;
17207;SDS011;8720;48.488;9.202;2023-06-26T11:06:29;5.23;;;4.80;;
17207;SDS011;8720;48.488;9.202;2023-06-26T11:08:59;5.30;;;4.90;;
17207;SDS011;8720;48.488;9.202;2023-06-26T11:14:33;5.90;;;5.37;;
17207;SDS011;8720;48.488;9.202;2023-06-26T11:17:02;8.30;;;5.63;;
17207;SDS011;8720;48.488;9.202;2023-06-26T11:19:30;5.60;;;5.10;;
17207;SDS011;8720;48.488;9.202;2023-06-26T11:22:07;6.63;;;6.00;;
17207;SDS011;8720;48.488;9.202;2023-06-26T11:24:34;7.17;;;6.57;;
17207;SDS011;8720;48.488;9.202;2023-06-26T11:27:04;6.10;;;5.50;;
17207;SDS011;8720;48.488;9.202;2023-06-26T11:29:32;6.03;;;5.50;;
17207;SDS011;8720;48.488;9.202;2023-06-26T11:32:00;5.73;;;5.23;;
17207;SDS011;8720;48.488;9.202;2023-06-26T11:34:32;5.80;;;5.30;;
17207;SDS011;8720;48.488;9.202;2023-06-26T11:37:00;5.97;;;5.37;;
17207;SDS011;8720;48.488;9.202;2023-06-26T11:39:29;6.07;;;5.57;;
17207;SDS011;8720;48.488;9.202;2023-06-26T11:41:56;6.53;;;5.93;;
17207;SDS011;8720;48.488;9.202;2023-06-26T11:44:32;6.50;;;5.50;;
17207;SDS011;8720;48.488;9.202;2023-06-26T11:47:08;6.83;;;6.20;;
17207;SDS011;8720;48.488;9.202;2023-06-26T11:49:41;7.03;;;6.43;;
17207;SDS011;8720;48.488;9.202;2023-06-26T11:52:09;6.03;;;5.53;;
17207;SDS011;8720;48.488;9.202;2023-06-26T11:54:37;6.60;;;6.00;;
17207;SDS011;8720;48.488;9.202;2023-06-26T11:57:05;7.00;;;6.40;;
17207;SDS011;8720;48.488;9.202;2023-06-26T11:59:37;7.03;;;6.43;;
17207;SDS011;8720;48.488;9.202;2023-06-26T12:02:06;13.53;;;6.53;;
17207;SDS011;8720;48.488;9.202;2023-06-26T12:04:35;6.43;;;5.87;;
17207;SDS011;8720;48.488;9.202;2023-06-26T12:07:07;7.00;;;6.40;;
17207;SDS011;8720;48.488;9.202;2023-06-26T12:09:38;6.80;;;6.20;;
17207;SDS011;8720;48.488;9.202;2023-06-26T12:12:08;6.87;;;6.37;;
17207;SDS011;8720;48.488;9.202;2023-06-26T12:14:38;6.73;;;6.13;;
17207;SDS011;8720;48.488;9.202;2023-06-26T12:17:08;7.17;;;6.50;;
17207;SDS011;8720;48.488;9.202;2023-06-26T12:19:38;5.93;;;5.43;;
17207;SDS011;8720;48.488;9.202;2023-06-26T12:22:10;7.03;;;6.43;;
17207;SDS011;8720;48.488;9.202;2023-06-26T12:24:37;7.10;;;5.77;;
17207;SDS011;8720;48.488;9.202;2023-06-26T12:27:08;7.00;;;6.40;;
17207;SDS011;8720;48.488;9.202;2023-06-26T12:29:39;7.20;;;5.57;;
17207;SDS011;8720;48.488;9.202;2023-06-26T12:32:13;6.93;;;6.40;;
17207;SDS011;8720;48.488;9.202;2023-06-26T12:34:41;6.63;;;5.83;;
17207;SDS011;8720;48.488;9.202;2023-06-26T12:37:12;6.50;;;5.90;;
17207;SDS011;8720;48.488;9.202;2023-06-26T12:39:46;6.70;;;6.10;;
17207;SDS011;8720;48.488;9.202;2023-06-26T12:42:18;6.30;;;5.70;;
17207;SDS011;8720;48.488;9.202;2023-06-26T12:44:50;6.70;;;6.10;;
17207;SDS011;8720;48.488;9.202;2023-06-26T12:47:23;6.30;;;5.77;;
17207;SDS011;8720;48.488;9.202;2023-06-26T12:49:53;6.33;;;5.83;;
17207;SDS011;8720;48.488;9.202;2023-06-26T12:52:21;6.97;;;6.37;;
17207;SDS011;8720;48.488;9.202;2023-06-26T12:54:51;7.07;;;6.47;;
17207;SDS011;8720;48.488;9.202;2023-06-26T12:57:21;6.87;;;6.27;;
17207;SDS011;8720;48.488;9.202;2023-06-26T12:59:50;8.17;;;6.37;;
17207;SDS011;8720;48.488;9.202;2023-06-26T13:02:17;6.60;;;6.10;;
17207;SDS011;8720;48.488;9.202;2023-06-26T13:04:45;6.50;;;5.90;;
17207;SDS011;8720;48.488;9.202;2023-06-26T13:07:13;6.33;;;5.73;;
17207;SDS011;8720;48.488;9.202;2023-06-26T13:09:40;7.10;;;6.40;;
17207;SDS011;8720;48.488;9.202;2023-06-26T13:12:10;6.43;;;5.90;;
17207;SDS011;8720;48.488;9.202;2023-06-26T13:14:38;7.10;;;6.40;;
17207;SDS011;8720;48.488;9.202;2023-06-26T13:17:06;6.67;;;6.17;;
17207;SDS011;8720;48.488;9.202;2023-06-26T13:19:34;5.73;;;5.23;;
17207;SDS011;8720;48.488;9.202;2023-06-26T13:22:01;6.33;;;5.83;;
17207;SDS011;8720;48.488;9.202;2023-06-26T13:24:29;6.57;;;6.00;;
17207;SDS011;8720;48.488;9.202;2023-06-26T13:26:56;6.97;;;6.27;;
17207;SDS011;8720;48.488;9.202;2023-06-26T13:29:24;6.53;;;5.93;;
17207;SDS011;8720;48.488;9.202;2023-06-26T13:31:51;7.73;;;6.80;;
17207;SDS011;8720;48.488;9.202;2023-06-26T13:34:21;7.00;;;6.40;;
17207;SDS011;8720;48.488;9.202;2023-06-26T13:36:52;6.57;;;5.97;;
17207;SDS011;8720;48.488;9.202;2023-06-26T13:39:20;6.83;;;5.90;;
17207;SDS011;8720;48.488;9.202;2023-06-26T13:41:48;5.97;;;5.47;;
17207;SDS011;8720;48.488;9.202;2023-06-26T13:44:15;6.03;;;5.53;;
17207;SDS011;8720;48.488;9.202;2023-06-26T13:46:43;6.57;;;5.97;;
17207;SDS011;8720;48.488;9.202;2023-06-26T13:49:10;6.63;;;6.03;;
17207;SDS011;8720;48.488;9.202;2023-06-26T13:51:39;6.20;;;5.70;;
17207;SDS011;8720;48.488;9.202;2023-06-26T13:54:10;6.00;;;5.50;;
17207;SDS011;8720;48.488;9.202;2023-06-26T13:56:38;6.67;;;5.97;;
17207;SDS011;8720;48.488;9.202;2023-06-26T13:59:05;6.47;;;5.87;;
17207;SDS011;8720;48.488;9.202;2023-06-26T14:01:32;6.50;;;5.60;;
17207;SDS011;8720;48.488;9.202;2023-06-26T14:03:59;6.57;;;6.00;;
17207;SDS011;8720;48.488;9.202;2023-06-26T14:06:27;7.30;;;6.07;;
17207;SDS011;8720;48.488;9.202;2023-06-26T14:08:56;7.37;;;6.57;;
17207;SDS011;8720;48.488;9.202;2023-06-26T14:11:25;7.27;;;6.67;;
17207;SDS011;8720;48.488;9.202;2023-06-26T14:13:52;7.37;;;6.67;;
17207;SDS011;8720;48.488;9.202;2023-06-26T14:16:19;11.17;;;5.70;;
17207;SDS011;8720;48.488;9.202;2023-06-26T14:18:47;6.17;;;5.57;;
17207;SDS011;8720;48.488;9.202;2023-06-26T14:21:15;6.10;;;5.60;;
17207;SDS011;8720;48.488;9.202;2023-06-26T14:23:42;6.20;;;5.60;;
17207;SDS011;8720;48.488;9.202;2023-06-26T14:26:11;6.60;;;6.00;;
17207;SDS011;8720;48.488;9.202;2023-06-26T14:28:38;6.17;;;5.57;;
17207;SDS011;8720;48.488;9.202;2023-06-26T14:31:06;5.97;;;5.40;;
17207;SDS011;8720;48.488;9.202;2023-06-26T14:33:33;6.40;;;5.80;;
17207;SDS011;8720;48.488;9.202;2023-06-26T14:36:00;6.80;;;5.50;;
17207;SDS011;8720;48.488;9.202;2023-06-26T14:38:27;6.37;;;5.77;;
17207;SDS011;8720;48.488;9.202;2023-06-26T14:40:55;6.10;;;5.50;;
17207;SDS011;8720;48.488;9.202;2023-06-26T14:43:24;6.93;;;6.33;;
17207;SDS011;8720;48.488;9.202;2023-06-26T14:45:51;5.77;;;5.20;;
17207;SDS011;8720;48.488;9.202;2023-06-26T14:48:18;6.83;;;5.40;;
17207;SDS011;8720;48.488;9.202;2023-06-26T14:50:45;8.73;;;5.63;;
17207;SDS011;8720;48.488;9.202;2023-06-26T14:53:13;5.87;;;5.37;;
17207;SDS011;8720;48.488;9.202;2023-06-26T14:55:40;6.63;;;6.00;;
17207;SDS011;8720;48.488;9.202;2023-06-26T14:58:07;6.80;;;5.07;;
17207;SDS011;8720;48.488;9.202;2023-06-26T15:00:36;5.70;;;5.20;;
17207;SDS011;8720;48.488;9.202;2023-06-26T15:03:03;5.00;;;4.50;;
17207;SDS011;8720;48.488;9.202;2023-06-26T15:05:31;5.77;;;5.27;;
17207;SDS011;8720;48.488;9.202;2023-06-26T15:07:58;6.10;;;5.10;;
17207;SDS011;8720;48.488;9.202;2023-06-26T15:10:25;5.43;;;4.93;;
17207;SDS011;8720;48.488;9.202;2023-06-26T15:12:52;7.67;;;5.47;;
17207;SDS011;8720;48.488;9.202;2023-06-26T15:15:20;5.67;;;4.70;;
17207;SDS011;8720;48.488;9.202;2023-06-26T15:17:49;5.10;;;4.60;;
17207;SDS011;8720;48.488;9.202;2023-06-26T15:20:16;5.03;;;4.53;;